sensor_id;sensor_type;location;lat;lon;timestamp;P1;durP1;ratioP1;P2;durP2;ratioP2
21107;SDS011;10712;52.944;9.098;2023-08-21T00:01:21;3.15;;;1.67;;
21107;SDS011;10712;52.944;9.098;2023-08-21T00:03:47;3.22;;;1.50;;
21107;SDS011;10712;52.944;9.098;2023-08-21T00:06:12;4.78;;;2.00;;
21107;SDS011;10712;52.944;9.098;2023-08-21T00:08:38;2.35;;;1.23;;
21107;SDS011;10712;52.944;9.098;2023-08-21T00:11:04;2.75;;;2.00;;
21107;SDS011;10712;52.944;9.098;2023-08-21T00:13:30;4.45;;;1.55;;
21107;SDS011;10712;52.944;9.098;2023-08-21T00:15:55;3.17;;;1.90;;
21107;SDS011;10712;52.944;9.098;2023-08-21T00:18:21;2.08;;;1.38;;
21107;SDS011;10712;52.944;9.098;2023-08-21T00:20:47;3.45;;;1.60;;
21107;SDS011;10712;52.944;9.098;2023-08-21T00:23:13;1.10;;;0.98;;
21107;SDS011;10712;52.944;9.098;2023-08-21T00:25:39;3.20;;;1.30;;
21107;SDS011;10712;52.944;9.098;2023-08-21T00:28:05;2.67;;;1.40;;
21107;SDS011;10712;52.944;9.098;2023-08-21T00:30:31;1.75;;;1.10;;
21107;SDS011;10712;52.944;9.098;2023-08-21T00:32:56;5.90;;;2.88;;
21107;SDS011;10712;52.944;9.098;2023-08-21T00:35:22;1.70;;;1.60;;
21107;SDS011;10712;52.944;9.098;2023-08-21T00:37:48;1.83;;;1.40;;
21107;SDS011;10712;52.944;9.098;2023-08-21T00:40:14;2.03;;;1.70;;
21107;SDS011;10712;52.944;9.098;2023-08-21T00:42:40;2.65;;;1.60;;
21107;SDS011;10712;52.944;9.098;2023-08-21T00:45:05;5.20;;;1.95;;
21107;SDS011;10712;52.944;9.098;2023-08-21T00:47:34;2.58;;;1.25;;
21107;SDS011;10712;52.944;9.098;2023-08-21T00:50:01;3.90;;;2.20;;
21107;SDS011;10712;52.944;9.098;2023-08-21T00:52:29;2.75;;;1.40;;
21107;SDS011;10712;52.944;9.098;2023-08-21T00:54:55;4.70;;;1.95;;
21107;SDS011;10712;52.944;9.098;2023-08-21T00:57:22;2.97;;;1.83;;
21107;SDS011;10712;52.944;9.098;2023-08-21T00:59:48;1.67;;;1.42;;
21107;SDS011;10712;52.944;9.098;2023-08-21T01:02:14;1.95;;;1.20;;
21107;SDS011;10712;52.944;9.098;2023-08-21T01:04:40;3.33;;;2.17;;
21107;SDS011;10712;52.944;9.098;2023-08-21T01:07:06;3.70;;;1.33;;
21107;SDS011;10712;52.944;9.098;2023-08-21T01:09:58;1.85;;;1.25;;
21107;SDS011;10712;52.944;9.098;2023-08-21T01:15:20;4.28;;;1.20;;
21107;SDS011;10712;52.944;9.098;2023-08-21T01:17:46;1.92;;;1.52;;
21107;SDS011;10712;52.944;9.098;2023-08-21T01:20:14;2.42;;;1.52;;
21107;SDS011;10712;52.944;9.098;2023-08-21T01:22:41;3.40;;;1.80;;
21107;SDS011;10712;52.944;9.098;2023-08-21T01:25:11;2.40;;;2.20;;
21107;SDS011;10712;52.944;9.098;2023-08-21T01:27:40;4.15;;;2.63;;
21107;SDS011;10712;52.944;9.098;2023-08-21T01:30:11;4.78;;;2.45;;
21107;SDS011;10712;52.944;9.098;2023-08-21T01:35:36;9.30;;;1.75;;
21107;SDS011;10712;52.944;9.098;2023-08-21T01:38:02;3.58;;;2.13;;
21107;SDS011;10712;52.944;9.098;2023-08-21T01:40:29;2.13;;;1.92;;
21107;SDS011;10712;52.944;9.098;2023-08-21T01:42:58;3.30;;;2.55;;
21107;SDS011;10712;52.944;9.098;2023-08-21T01:45:24;2.78;;;2.20;;
21107;SDS011;10712;52.944;9.098;2023-08-21T01:47:50;2.65;;;2.40;;
21107;SDS011;10712;52.944;9.098;2023-08-21T01:50:16;2.38;;;2.10;;
21107;SDS011;10712;52.944;9.098;2023-08-21T01:52:42;2.10;;;1.90;;
21107;SDS011;10712;52.944;9.098;2023-08-21T01:55:08;2.80;;;1.83;;
21107;SDS011;10712;52.944;9.098;2023-08-21T01:57:35;2.50;;;2.30;;
21107;SDS011;10712;52.944;9.098;2023-08-21T02:00:02;2.40;;;2.20;;
21107;SDS011;10712;52.944;9.098;2023-08-21T02:02:39;3.08;;;2.60;;
21107;SDS011;10712;52.944;9.098;2023-08-21T02:05:05;3.63;;;2.33;;
21107;SDS011;10712;52.944;9.098;2023-08-21T02:07:31;2.58;;;2.20;;
21107;SDS011;10712;52.944;9.098;2023-08-21T02:09:57;3.33;;;2.42;;
21107;SDS011;10712;52.944;9.098;2023-08-21T02:12:23;4.78;;;2.67;;
21107;SDS011;10712;52.944;9.098;2023-08-21T02:14:49;4.95;;;3.22;;
21107;SDS011;10712;52.944;9.098;2023-08-21T02:17:14;3.38;;;2.95;;
21107;SDS011;10712;52.944;9.098;2023-08-21T02:19:41;2.97;;;2.05;;
21107;SDS011;10712;52.944;9.098;2023-08-21T02:22:07;1.98;;;1.80;;
21107;SDS011;10712;52.944;9.098;2023-08-21T02:24:33;3.10;;;2.35;;
21107;SDS011;10712;52.944;9.098;2023-08-21T02:26:58;2.75;;;1.60;;
21107;SDS011;10712;52.944;9.098;2023-08-21T02:29:24;7.65;;;4.50;;
21107;SDS011;10712;52.944;9.098;2023-08-21T02:31:50;3.22;;;2.92;;
21107;SDS011;10712;52.944;9.098;2023-08-21T02:34:16;2.60;;;2.40;;
21107;SDS011;10712;52.944;9.098;2023-08-21T02:36:45;6.95;;;3.80;;
21107;SDS011;10712;52.944;9.098;2023-08-21T02:39:11;3.28;;;2.90;;
21107;SDS011;10712;52.944;9.098;2023-08-21T02:41:36;2.78;;;2.40;;
21107;SDS011;10712;52.944;9.098;2023-08-21T02:44:02;4.50;;;4.05;;
21107;SDS011;10712;52.944;9.098;2023-08-21T02:46:28;4.38;;;2.90;;
21107;SDS011;10712;52.944;9.098;2023-08-21T02:48:54;2.55;;;2.35;;
21107;SDS011;10712;52.944;9.098;2023-08-21T02:51:20;4.72;;;4.10;;
21107;SDS011;10712;52.944;9.098;2023-08-21T02:53:45;5.05;;;3.17;;
21107;SDS011;10712;52.944;9.098;2023-08-21T02:56:12;3.97;;;3.17;;
21107;SDS011;10712;52.944;9.098;2023-08-21T02:58:38;4.43;;;2.85;;
21107;SDS011;10712;52.944;9.098;2023-08-21T03:01:03;2.30;;;2.10;;
21107;SDS011;10712;52.944;9.098;2023-08-21T03:03:29;4.07;;;3.70;;
21107;SDS011;10712;52.944;9.098;2023-08-21T03:05:55;4.68;;;3.78;;
21107;SDS011;10712;52.944;9.098;2023-08-21T03:08:21;4.82;;;3.70;;
21107;SDS011;10712;52.944;9.098;2023-08-21T03:10:46;5.05;;;2.85;;
21107;SDS011;10712;52.944;9.098;2023-08-21T03:13:12;3.90;;;3.47;;
21107;SDS011;10712;52.944;9.098;2023-08-21T03:15:38;4.45;;;3.70;;
21107;SDS011;10712;52.944;9.098;2023-08-21T03:18:04;4.18;;;3.38;;
21107;SDS011;10712;52.944;9.098;2023-08-21T03:20:30;4.70;;;2.97;;
21107;SDS011;10712;52.944;9.098;2023-08-21T03:22:56;2.70;;;2.50;;
21107;SDS011;10712;52.944;9.098;2023-08-21T03:25:23;2.70;;;2.50;;
21107;SDS011;10712;52.944;9.098;2023-08-21T03:27:49;3.03;;;2.30;;
21107;SDS011;10712;52.944;9.098;2023-08-21T03:30:15;3.25;;;2.53;;
21107;SDS011;10712;52.944;9.098;2023-08-21T03:32:41;3.45;;;3.15;;
21107;SDS011;10712;52.944;9.098;2023-08-21T03:35:08;3.15;;;2.95;;
21107;SDS011;10712;52.944;9.098;2023-08-21T03:37:35;2.00;;;1.80;;
21107;SDS011;10712;52.944;9.098;2023-08-21T03:40:02;1.88;;;1.77;;
21107;SDS011;10712;52.944;9.098;2023-08-21T03:42:30;2.25;;;2.15;;
21107;SDS011;10712;52.944;9.098;2023-08-21T03:44:56;4.00;;;2.80;;
21107;SDS011;10712;52.944;9.098;2023-08-21T03:47:23;2.80;;;2.60;;
21107;SDS011;10712;52.944;9.098;2023-08-21T03:49:55;3.25;;;2.42;;
21107;SDS011;10712;52.944;9.098;2023-08-21T03:52:23;4.03;;;2.70;;
21107;SDS011;10712;52.944;9.098;2023-08-21T03:54:49;3.55;;;2.20;;
21107;SDS011;10712;52.944;9.098;2023-08-21T03:57:14;3.55;;;2.80;;
21107;SDS011;10712;52.944;9.098;2023-08-21T03:59:40;3.15;;;2.85;;
21107;SDS011;10712;52.944;9.098;2023-08-21T04:02:06;4.88;;;4.00;;
21107;SDS011;10712;52.944;9.098;2023-08-21T04:04:32;3.03;;;2.80;;
21107;SDS011;10712;52.944;9.098;2023-08-21T04:06:57;3.20;;;2.92;;
21107;SDS011;10712;52.944;9.098;2023-08-21T04:09:23;2.90;;;2.70;;
21107;SDS011;10712;52.944;9.098;2023-08-21T04:11:49;4.55;;;3.40;;
21107;SDS011;10712;52.944;9.098;2023-08-21T04:14:15;3.25;;;2.92;;
21107;SDS011;10712;52.944;9.098;2023-08-21T04:16:40;4.93;;;3.58;;
21107;SDS011;10712;52.944;9.098;2023-08-21T04:19:06;4.20;;;3.88;;
21107;SDS011;10712;52.944;9.098;2023-08-21T04:21:32;5.30;;;3.33;;
21107;SDS011;10712;52.944;9.098;2023-08-21T04:23:58;4.50;;;3.28;;
21107;SDS011;10712;52.944;9.098;2023-08-21T04:26:24;4.97;;;3.95;;
21107;SDS011;10712;52.944;9.098;2023-08-21T04:28:50;5.65;;;3.58;;
21107;SDS011;10712;52.944;9.098;2023-08-21T04:31:16;8.63;;;6.07;;
21107;SDS011;10712;52.944;9.098;2023-08-21T04:33:43;5.70;;;4.68;;
21107;SDS011;10712;52.944;9.098;2023-08-21T04:36:14;7.32;;;4.68;;
21107;SDS011;10712;52.944;9.098;2023-08-21T04:38:45;6.18;;;5.43;;
21107;SDS011;10712;52.944;9.098;2023-08-21T04:41:11;5.75;;;5.25;;
21107;SDS011;10712;52.944;9.098;2023-08-21T04:43:41;5.50;;;4.30;;
21107;SDS011;10712;52.944;9.098;2023-08-21T04:46:08;4.57;;;4.18;;
21107;SDS011;10712;52.944;9.098;2023-08-21T04:48:36;4.35;;;3.00;;
21107;SDS011;10712;52.944;9.098;2023-08-21T04:51:02;3.72;;;3.42;;
21107;SDS011;10712;52.944;9.098;2023-08-21T04:53:28;2.70;;;2.47;;
21107;SDS011;10712;52.944;9.098;2023-08-21T04:55:58;3.47;;;2.65;;
21107;SDS011;10712;52.944;9.098;2023-08-21T04:58:25;6.00;;;3.58;;
21107;SDS011;10712;52.944;9.098;2023-08-21T05:00:51;4.00;;;3.30;;
21107;SDS011;10712;52.944;9.098;2023-08-21T05:03:17;2.60;;;2.40;;
21107;SDS011;10712;52.944;9.098;2023-08-21T05:05:51;2.75;;;2.47;;
21107;SDS011;10712;52.944;9.098;2023-08-21T05:08:20;3.15;;;2.95;;
21107;SDS011;10712;52.944;9.098;2023-08-21T05:10:59;3.92;;;3.58;;
21107;SDS011;10712;52.944;9.098;2023-08-21T05:13:29;3.65;;;3.35;;
21107;SDS011;10712;52.944;9.098;2023-08-21T05:15:55;4.07;;;3.72;;
21107;SDS011;10712;52.944;9.098;2023-08-21T05:18:26;4.72;;;2.85;;
21107;SDS011;10712;52.944;9.098;2023-08-21T05:20:54;3.50;;;3.20;;
21107;SDS011;10712;52.944;9.098;2023-08-21T05:23:21;3.15;;;2.85;;
21107;SDS011;10712;52.944;9.098;2023-08-21T05:25:49;4.03;;;3.15;;
21107;SDS011;10712;52.944;9.098;2023-08-21T05:28:15;4.68;;;4.03;;
21107;SDS011;10712;52.944;9.098;2023-08-21T05:30:41;3.90;;;3.42;;
21107;SDS011;10712;52.944;9.098;2023-08-21T05:33:07;3.70;;;3.40;;
21107;SDS011;10712;52.944;9.098;2023-08-21T05:35:37;5.18;;;2.67;;
21107;SDS011;10712;52.944;9.098;2023-08-21T05:38:03;2.88;;;2.67;;
21107;SDS011;10712;52.944;9.098;2023-08-21T05:40:30;7.20;;;3.42;;
21107;SDS011;10712;52.944;9.098;2023-08-21T05:42:56;3.85;;;3.08;;
21107;SDS011;10712;52.944;9.098;2023-08-21T05:45:23;3.70;;;2.97;;
21107;SDS011;10712;52.944;9.098;2023-08-21T05:47:49;3.03;;;2.83;;
21107;SDS011;10712;52.944;9.098;2023-08-21T05:50:14;3.72;;;3.00;;
21107;SDS011;10712;52.944;9.098;2023-08-21T05:52:40;3.28;;;2.97;;
21107;SDS011;10712;52.944;9.098;2023-08-21T05:55:07;5.60;;;3.97;;
21107;SDS011;10712;52.944;9.098;2023-08-21T05:57:33;4.75;;;4.35;;
21107;SDS011;10712;52.944;9.098;2023-08-21T05:59:59;3.92;;;3.60;;
21107;SDS011;10712;52.944;9.098;2023-08-21T06:02:28;4.45;;;4.05;;
21107;SDS011;10712;52.944;9.098;2023-08-21T06:04:54;9.63;;;6.20;;
21107;SDS011;10712;52.944;9.098;2023-08-21T06:07:22;4.97;;;4.40;;
21107;SDS011;10712;52.944;9.098;2023-08-21T06:09:48;8.63;;;5.93;;
21107;SDS011;10712;52.944;9.098;2023-08-21T06:12:14;7.03;;;4.82;;
21107;SDS011;10712;52.944;9.098;2023-08-21T06:14:41;5.50;;;4.97;;
21107;SDS011;10712;52.944;9.098;2023-08-21T06:17:08;7.10;;;4.13;;
21107;SDS011;10712;52.944;9.098;2023-08-21T06:19:35;4.82;;;4.32;;
21107;SDS011;10712;52.944;9.098;2023-08-21T06:22:01;4.63;;;3.92;;
21107;SDS011;10712;52.944;9.098;2023-08-21T06:24:27;3.80;;;3.40;;
21107;SDS011;10712;52.944;9.098;2023-08-21T06:27:00;6.63;;;4.90;;
21107;SDS011;10712;52.944;9.098;2023-08-21T06:29:26;3.72;;;3.40;;
21107;SDS011;10712;52.944;9.098;2023-08-21T06:31:53;5.93;;;5.30;;
21107;SDS011;10712;52.944;9.098;2023-08-21T06:34:21;6.18;;;4.40;;
21107;SDS011;10712;52.944;9.098;2023-08-21T06:36:46;11.52;;;7.70;;
21107;SDS011;10712;52.944;9.098;2023-08-21T06:39:12;6.55;;;5.22;;
21107;SDS011;10712;52.944;9.098;2023-08-21T06:41:38;17.10;;;14.50;;
21107;SDS011;10712;52.944;9.098;2023-08-21T06:44:04;14.52;;;8.93;;
21107;SDS011;10712;52.944;9.098;2023-08-21T06:46:29;9.35;;;7.22;;
21107;SDS011;10712;52.944;9.098;2023-08-21T06:48:55;8.15;;;6.60;;
21107;SDS011;10712;52.944;9.098;2023-08-21T06:51:22;5.13;;;4.63;;
21107;SDS011;10712;52.944;9.098;2023-08-21T06:53:48;8.00;;;5.95;;
21107;SDS011;10712;52.944;9.098;2023-08-21T06:56:14;5.43;;;4.45;;
21107;SDS011;10712;52.944;9.098;2023-08-21T06:58:40;4.32;;;3.92;;
21107;SDS011;10712;52.944;9.098;2023-08-21T07:01:06;14.15;;;7.82;;
21107;SDS011;10712;52.944;9.098;2023-08-21T07:03:32;9.75;;;5.15;;
21107;SDS011;10712;52.944;9.098;2023-08-21T07:05:59;10.40;;;4.80;;
21107;SDS011;10712;52.944;9.098;2023-08-21T07:08:26;8.13;;;5.80;;
21107;SDS011;10712;52.944;9.098;2023-08-21T07:10:53;8.57;;;5.63;;
21107;SDS011;10712;52.944;9.098;2023-08-21T07:13:20;10.80;;;5.00;;
21107;SDS011;10712;52.944;9.098;2023-08-21T07:15:46;11.60;;;5.60;;
21107;SDS011;10712;52.944;9.098;2023-08-21T07:18:12;9.38;;;4.60;;
21107;SDS011;10712;52.944;9.098;2023-08-21T07:20:39;4.05;;;2.90;;
21107;SDS011;10712;52.944;9.098;2023-08-21T07:23:04;7.15;;;3.20;;
21107;SDS011;10712;52.944;9.098;2023-08-21T07:25:31;12.07;;;4.13;;
21107;SDS011;10712;52.944;9.098;2023-08-21T07:27:57;3.53;;;2.63;;
21107;SDS011;10712;52.944;9.098;2023-08-21T07:30:23;2.67;;;1.95;;
21107;SDS011;10712;52.944;9.098;2023-08-21T07:32:49;2.83;;;2.17;;
21107;SDS011;10712;52.944;9.098;2023-08-21T07:35:15;4.22;;;2.17;;
21107;SDS011;10712;52.944;9.098;2023-08-21T07:37:44;8.45;;;3.92;;
21107;SDS011;10712;52.944;9.098;2023-08-21T07:40:10;14.25;;;4.20;;
21107;SDS011;10712;52.944;9.098;2023-08-21T07:42:37;10.18;;;3.28;;
21107;SDS011;10712;52.944;9.098;2023-08-21T07:45:03;8.68;;;3.17;;
21107;SDS011;10712;52.944;9.098;2023-08-21T07:47:30;12.50;;;3.42;;
21107;SDS011;10712;52.944;9.098;2023-08-21T07:49:56;12.07;;;3.42;;
21107;SDS011;10712;52.944;9.098;2023-08-21T07:52:22;4.70;;;1.85;;
21107;SDS011;10712;52.944;9.098;2023-08-21T07:54:52;8.48;;;2.45;;
21107;SDS011;10712;52.944;9.098;2023-08-21T07:57:19;6.18;;;2.22;;
21107;SDS011;10712;52.944;9.098;2023-08-21T07:59:45;6.35;;;2.08;;
21107;SDS011;10712;52.944;9.098;2023-08-21T08:02:11;4.15;;;1.80;;
21107;SDS011;10712;52.944;9.098;2023-08-21T08:04:38;4.20;;;1.77;;
21107;SDS011;10712;52.944;9.098;2023-08-21T08:07:04;5.32;;;2.30;;
21107;SDS011;10712;52.944;9.098;2023-08-21T08:09:30;9.32;;;2.03;;
21107;SDS011;10712;52.944;9.098;2023-08-21T08:11:56;10.63;;;2.70;;
21107;SDS011;10712;52.944;9.098;2023-08-21T08:14:21;14.32;;;3.15;;
21107;SDS011;10712;52.944;9.098;2023-08-21T08:16:47;4.05;;;2.10;;
21107;SDS011;10712;52.944;9.098;2023-08-21T08:19:13;9.55;;;2.38;;
21107;SDS011;10712;52.944;9.098;2023-08-21T08:21:39;8.90;;;2.20;;
21107;SDS011;10712;52.944;9.098;2023-08-21T08:24:05;4.47;;;1.77;;
21107;SDS011;10712;52.944;9.098;2023-08-21T08:26:30;7.75;;;2.08;;
21107;SDS011;10712;52.944;9.098;2023-08-21T08:28:56;3.70;;;1.60;;
21107;SDS011;10712;52.944;9.098;2023-08-21T08:31:22;6.55;;;1.98;;
21107;SDS011;10712;52.944;9.098;2023-08-21T08:33:50;9.88;;;2.08;;
21107;SDS011;10712;52.944;9.098;2023-08-21T08:36:16;6.93;;;1.88;;
21107;SDS011;10712;52.944;9.098;2023-08-21T08:38:42;7.63;;;1.63;;
21107;SDS011;10712;52.944;9.098;2023-08-21T08:41:18;4.30;;;1.23;;
21107;SDS011;10712;52.944;9.098;2023-08-21T08:44:18;4.57;;;1.33;;
21107;SDS011;10712;52.944;9.098;2023-08-21T08:46:45;5.28;;;1.45;;
21107;SDS011;10712;52.944;9.098;2023-08-21T08:49:11;5.43;;;1.15;;
21107;SDS011;10712;52.944;9.098;2023-08-21T08:51:37;3.92;;;1.30;;
21107;SDS011;10712;52.944;9.098;2023-08-21T08:54:06;4.95;;;1.20;;
21107;SDS011;10712;52.944;9.098;2023-08-21T08:56:34;3.20;;;1.08;;
21107;SDS011;10712;52.944;9.098;2023-08-21T08:59:00;5.05;;;1.38;;
21107;SDS011;10712;52.944;9.098;2023-08-21T09:01:27;4.03;;;1.10;;
21107;SDS011;10712;52.944;9.098;2023-08-21T09:03:54;4.10;;;1.30;;
21107;SDS011;10712;52.944;9.098;2023-08-21T09:06:19;1.58;;;0.80;;
21107;SDS011;10712;52.944;9.098;2023-08-21T09:08:57;4.32;;;0.80;;
21107;SDS011;10712;52.944;9.098;2023-08-21T09:11:23;1.75;;;0.90;;
21107;SDS011;10712;52.944;9.098;2023-08-21T09:13:50;3.72;;;0.90;;
21107;SDS011;10712;52.944;9.098;2023-08-21T09:16:18;2.83;;;1.20;;
21107;SDS011;10712;52.944;9.098;2023-08-21T09:18:50;6.25;;;1.85;;
21107;SDS011;10712;52.944;9.098;2023-08-21T09:21:19;2.65;;;0.77;;
21107;SDS011;10712;52.944;9.098;2023-08-21T09:23:47;7.25;;;1.52;;
21107;SDS011;10712;52.944;9.098;2023-08-21T09:26:21;6.97;;;1.67;;
21107;SDS011;10712;52.944;9.098;2023-08-21T09:28:49;1.95;;;1.00;;
21107;SDS011;10712;52.944;9.098;2023-08-21T09:31:19;4.22;;;0.98;;
21107;SDS011;10712;52.944;9.098;2023-08-21T09:33:54;3.92;;;1.02;;
21107;SDS011;10712;52.944;9.098;2023-08-21T09:36:25;4.57;;;1.20;;
21107;SDS011;10712;52.944;9.098;2023-08-21T09:38:54;7.13;;;1.40;;
21107;SDS011;10712;52.944;9.098;2023-08-21T09:41:20;6.07;;;1.55;;
21107;SDS011;10712;52.944;9.098;2023-08-21T09:43:50;7.47;;;1.70;;
21107;SDS011;10712;52.944;9.098;2023-08-21T09:46:26;6.07;;;1.27;;
21107;SDS011;10712;52.944;9.098;2023-08-21T09:48:53;6.95;;;1.88;;
21107;SDS011;10712;52.944;9.098;2023-08-21T09:51:19;4.10;;;0.80;;
21107;SDS011;10712;52.944;9.098;2023-08-21T09:53:47;8.57;;;1.92;;
21107;SDS011;10712;52.944;9.098;2023-08-21T09:56:15;5.00;;;1.42;;
21107;SDS011;10712;52.944;9.098;2023-08-21T09:58:43;2.13;;;0.82;;
21107;SDS011;10712;52.944;9.098;2023-08-21T10:01:12;3.53;;;1.02;;
21107;SDS011;10712;52.944;9.098;2023-08-21T10:03:41;4.35;;;1.20;;
21107;SDS011;10712;52.944;9.098;2023-08-21T10:06:13;5.03;;;1.23;;
21107;SDS011;10712;52.944;9.098;2023-08-21T10:08:45;4.00;;;1.35;;
21107;SDS011;10712;52.944;9.098;2023-08-21T10:11:14;5.43;;;1.83;;
21107;SDS011;10712;52.944;9.098;2023-08-21T10:13:45;2.03;;;1.00;;
21107;SDS011;10712;52.944;9.098;2023-08-21T10:16:12;7.03;;;1.45;;
21107;SDS011;10712;52.944;9.098;2023-08-21T10:18:42;3.80;;;1.05;;
21107;SDS011;10712;52.944;9.098;2023-08-21T10:21:17;4.07;;;0.98;;
21107;SDS011;10712;52.944;9.098;2023-08-21T10:23:49;3.55;;;1.08;;
21107;SDS011;10712;52.944;9.098;2023-08-21T10:26:20;3.67;;;1.20;;
21107;SDS011;10712;52.944;9.098;2023-08-21T10:28:48;5.63;;;1.38;;
21107;SDS011;10712;52.944;9.098;2023-08-21T10:31:34;2.67;;;1.17;;
21107;SDS011;10712;52.944;9.098;2023-08-21T10:34:10;3.15;;;1.05;;
21107;SDS011;10712;52.944;9.098;2023-08-21T10:37:02;4.88;;;2.15;;
21107;SDS011;10712;52.944;9.098;2023-08-21T10:39:35;5.55;;;1.45;;
21107;SDS011;10712;52.944;9.098;2023-08-21T10:44:37;6.60;;;1.30;;
21107;SDS011;10712;52.944;9.098;2023-08-21T10:50:03;3.55;;;1.25;;
21107;SDS011;10712;52.944;9.098;2023-08-21T10:52:35;5.30;;;1.45;;
21107;SDS011;10712;52.944;9.098;2023-08-21T10:55:03;3.83;;;2.05;;
21107;SDS011;10712;52.944;9.098;2023-08-21T10:57:29;3.90;;;0.93;;
21107;SDS011;10712;52.944;9.098;2023-08-21T11:00:04;1.98;;;0.93;;
21107;SDS011;10712;52.944;9.098;2023-08-21T11:02:39;3.03;;;1.27;;
21107;SDS011;10712;52.944;9.098;2023-08-21T11:05:09;3.58;;;1.10;;
21107;SDS011;10712;52.944;9.098;2023-08-21T11:07:37;5.45;;;1.23;;
21107;SDS011;10712;52.944;9.098;2023-08-21T11:10:13;3.80;;;1.08;;
21107;SDS011;10712;52.944;9.098;2023-08-21T11:12:47;7.10;;;1.35;;
21107;SDS011;10712;52.944;9.098;2023-08-21T11:15:18;6.40;;;1.05;;
21107;SDS011;10712;52.944;9.098;2023-08-21T11:17:51;2.25;;;0.93;;
21107;SDS011;10712;52.944;9.098;2023-08-21T11:20:22;5.35;;;1.30;;
21107;SDS011;10712;52.944;9.098;2023-08-21T11:25:38;3.40;;;1.38;;
21107;SDS011;10712;52.944;9.098;2023-08-21T11:28:05;4.00;;;1.10;;
21107;SDS011;10712;52.944;9.098;2023-08-21T11:30:33;2.35;;;0.60;;
21107;SDS011;10712;52.944;9.098;2023-08-21T11:33:08;3.22;;;1.27;;
21107;SDS011;10712;52.944;9.098;2023-08-21T11:35:38;4.53;;;1.48;;
21107;SDS011;10712;52.944;9.098;2023-08-21T11:38:05;4.28;;;1.20;;
21107;SDS011;10712;52.944;9.098;2023-08-21T11:40:34;2.13;;;1.10;;
21107;SDS011;10712;52.944;9.098;2023-08-21T11:43:01;3.00;;;0.85;;
21107;SDS011;10712;52.944;9.098;2023-08-21T11:45:28;4.27;;;1.13;;
21107;SDS011;10712;52.944;9.098;2023-08-21T11:47:57;2.80;;;1.08;;
21107;SDS011;10712;52.944;9.098;2023-08-21T11:50:23;1.42;;;0.85;;
21107;SDS011;10712;52.944;9.098;2023-08-21T11:52:53;5.78;;;1.00;;
21107;SDS011;10712;52.944;9.098;2023-08-21T11:55:20;5.57;;;1.40;;
21107;SDS011;10712;52.944;9.098;2023-08-21T11:57:51;3.70;;;1.10;;
21107;SDS011;10712;52.944;9.098;2023-08-21T12:00:18;2.85;;;1.15;;
21107;SDS011;10712;52.944;9.098;2023-08-21T12:02:56;3.97;;;1.23;;
21107;SDS011;10712;52.944;9.098;2023-08-21T12:05:25;3.50;;;1.50;;
21107;SDS011;10712;52.944;9.098;2023-08-21T12:07:52;2.72;;;0.90;;
21107;SDS011;10712;52.944;9.098;2023-08-21T12:10:23;5.75;;;1.25;;
21107;SDS011;10712;52.944;9.098;2023-08-21T12:12:53;4.50;;;1.33;;
21107;SDS011;10712;52.944;9.098;2023-08-21T12:15:20;1.73;;;0.90;;
21107;SDS011;10712;52.944;9.098;2023-08-21T12:17:46;3.03;;;1.30;;
21107;SDS011;10712;52.944;9.098;2023-08-21T12:20:12;3.05;;;1.17;;
21107;SDS011;10712;52.944;9.098;2023-08-21T12:22:39;5.32;;;1.25;;
21107;SDS011;10712;52.944;9.098;2023-08-21T12:25:07;3.40;;;1.83;;
21107;SDS011;10712;52.944;9.098;2023-08-21T12:27:35;4.50;;;1.40;;
21107;SDS011;10712;52.944;9.098;2023-08-21T12:30:01;6.63;;;1.73;;
21107;SDS011;10712;52.944;9.098;2023-08-21T12:32:28;4.82;;;1.42;;
21107;SDS011;10712;52.944;9.098;2023-08-21T12:34:53;7.03;;;1.85;;
21107;SDS011;10712;52.944;9.098;2023-08-21T12:37:19;5.40;;;2.00;;
21107;SDS011;10712;52.944;9.098;2023-08-21T12:39:45;4.45;;;1.45;;
21107;SDS011;10712;52.944;9.098;2023-08-21T12:42:11;4.95;;;1.30;;
21107;SDS011;10712;52.944;9.098;2023-08-21T12:44:37;3.75;;;1.38;;
21107;SDS011;10712;52.944;9.098;2023-08-21T12:47:03;3.85;;;1.10;;
21107;SDS011;10712;52.944;9.098;2023-08-21T12:49:29;8.90;;;2.30;;
21107;SDS011;10712;52.944;9.098;2023-08-21T12:51:55;7.07;;;1.50;;
21107;SDS011;10712;52.944;9.098;2023-08-21T12:54:20;5.43;;;1.70;;
21107;SDS011;10712;52.944;9.098;2023-08-21T12:56:46;5.47;;;1.30;;
21107;SDS011;10712;52.944;9.098;2023-08-21T12:59:12;4.88;;;1.52;;
21107;SDS011;10712;52.944;9.098;2023-08-21T13:01:38;1.45;;;0.75;;
21107;SDS011;10712;52.944;9.098;2023-08-21T13:04:05;1.88;;;0.93;;
21107;SDS011;10712;52.944;9.098;2023-08-21T13:06:31;2.17;;;0.90;;
21107;SDS011;10712;52.944;9.098;2023-08-21T13:08:57;3.30;;;1.20;;
21107;SDS011;10712;52.944;9.098;2023-08-21T13:11:22;2.58;;;0.90;;
21107;SDS011;10712;52.944;9.098;2023-08-21T13:13:48;1.75;;;0.82;;
21107;SDS011;10712;52.944;9.098;2023-08-21T13:16:14;1.27;;;0.52;;
21107;SDS011;10712;52.944;9.098;2023-08-21T13:18:40;3.05;;;0.93;;
21107;SDS011;10712;52.944;9.098;2023-08-21T13:21:06;1.65;;;0.90;;
21107;SDS011;10712;52.944;9.098;2023-08-21T13:23:33;3.15;;;0.90;;
21107;SDS011;10712;52.944;9.098;2023-08-21T13:25:59;1.35;;;0.90;;
21107;SDS011;10712;52.944;9.098;2023-08-21T13:28:26;3.40;;;1.00;;
21107;SDS011;10712;52.944;9.098;2023-08-21T13:30:52;2.75;;;1.40;;
21107;SDS011;10712;52.944;9.098;2023-08-21T13:33:18;1.65;;;0.85;;
21107;SDS011;10712;52.944;9.098;2023-08-21T13:35:44;1.55;;;0.70;;
21107;SDS011;10712;52.944;9.098;2023-08-21T13:38:12;2.00;;;0.75;;
21107;SDS011;10712;52.944;9.098;2023-08-21T13:40:38;2.20;;;1.05;;
21107;SDS011;10712;52.944;9.098;2023-08-21T13:43:06;2.25;;;0.85;;
21107;SDS011;10712;52.944;9.098;2023-08-21T13:45:32;2.25;;;0.90;;
21107;SDS011;10712;52.944;9.098;2023-08-21T13:47:58;15.05;;;3.75;;
21107;SDS011;10712;52.944;9.098;2023-08-21T13:50:24;5.38;;;2.28;;
21107;SDS011;10712;52.944;9.098;2023-08-21T13:52:50;6.22;;;2.08;;
21107;SDS011;10712;52.944;9.098;2023-08-21T13:55:16;2.95;;;1.75;;
21107;SDS011;10712;52.944;9.098;2023-08-21T13:57:42;2.92;;;1.00;;
21107;SDS011;10712;52.944;9.098;2023-08-21T14:00:09;4.47;;;1.45;;
21107;SDS011;10712;52.944;9.098;2023-08-21T14:02:40;2.20;;;0.98;;
21107;SDS011;10712;52.944;9.098;2023-08-21T14:05:06;2.40;;;1.30;;
21107;SDS011;10712;52.944;9.098;2023-08-21T14:07:34;4.10;;;1.40;;
21107;SDS011;10712;52.944;9.098;2023-08-21T14:10:00;0.80;;;0.80;;
21107;SDS011;10712;52.944;9.098;2023-08-21T14:12:29;3.58;;;1.17;;
21107;SDS011;10712;52.944;9.098;2023-08-21T14:14:56;2.13;;;0.82;;
21107;SDS011;10712;52.944;9.098;2023-08-21T14:17:23;4.47;;;1.20;;
21107;SDS011;10712;52.944;9.098;2023-08-21T14:19:49;5.88;;;1.23;;
21107;SDS011;10712;52.944;9.098;2023-08-21T14:22:15;3.38;;;1.23;;
21107;SDS011;10712;52.944;9.098;2023-08-21T14:24:41;1.70;;;1.10;;
21107;SDS011;10712;52.944;9.098;2023-08-21T14:27:06;3.75;;;1.27;;
21107;SDS011;10712;52.944;9.098;2023-08-21T14:29:32;3.05;;;0.95;;
21107;SDS011;10712;52.944;9.098;2023-08-21T14:31:58;1.00;;;0.63;;
21107;SDS011;10712;52.944;9.098;2023-08-21T14:34:25;1.80;;;0.90;;
21107;SDS011;10712;52.944;9.098;2023-08-21T14:36:53;2.35;;;0.90;;
21107;SDS011;10712;52.944;9.098;2023-08-21T14:39:23;3.70;;;1.02;;
21107;SDS011;10712;52.944;9.098;2023-08-21T14:41:56;2.75;;;1.05;;
21107;SDS011;10712;52.944;9.098;2023-08-21T14:44:23;2.10;;;1.25;;
21107;SDS011;10712;52.944;9.098;2023-08-21T14:46:51;2.25;;;0.80;;
21107;SDS011;10712;52.944;9.098;2023-08-21T14:49:19;2.85;;;1.23;;
21107;SDS011;10712;52.944;9.098;2023-08-21T14:51:45;3.05;;;1.15;;
21107;SDS011;10712;52.944;9.098;2023-08-21T14:54:11;3.88;;;1.50;;
21107;SDS011;10712;52.944;9.098;2023-08-21T14:56:38;2.33;;;1.02;;
21107;SDS011;10712;52.944;9.098;2023-08-21T14:59:04;2.38;;;1.10;;
21107;SDS011;10712;52.944;9.098;2023-08-21T15:01:30;3.95;;;1.05;;
21107;SDS011;10712;52.944;9.098;2023-08-21T15:03:56;1.55;;;0.88;;